Time;durP1;ratioP1;P1;durP2;ratioP2;P2;SDS_P1;SDS_P2;PMS_P1;PMS_P2;Temp;Humidity;BMP_temperature;BMP_pressure;BME280_temperature;BME280_humidity;BME280_pressure;Samples;Min_cycle;Max_cycle;Signal;HPM_P1;HPM_P2
2021/04/28 00:02:21;;;;;;;5.68;3.03;;;11.00;46.40;;;;;;5051596;28;20021;-73
2021/04/28 00:04:46;;;;;;;7.75;3.60;;;10.90;46.20;;;;;;5053399;28;20021;-73
2021/04/28 00:07:12;;;;;;;8.52;3.53;;;10.90;46.20;;;;;;5053306;28;20126;-73
2021/04/28 00:09:37;;;;;;;4.55;3.17;;;11.00;46.70;;;;;;5051393;28;20075;-73
2021/04/28 00:12:04;;;;;;;5.18;3.25;;;10.90;46.50;;;;;;5053308;28;20043;-72
2021/04/28 00:14:30;;;;;;;5.18;3.15;;;10.90;47.00;;;;;;5051393;28;20017;-73
2021/04/28 00:16:57;;;;;;;6.75;3.40;;;10.90;47.00;;;;;;5051879;28;20103;-72
2021/04/28 00:19:23;;;;;;;6.30;3.08;;;10.90;47.50;;;;;;5051176;28;20404;-72
2021/04/28 00:21:48;;;;;;;5.82;3.47;;;10.80;47.10;;;;;;5051836;28;20095;-72
2021/04/28 00:24:14;;;;;;;5.05;3.25;;;10.80;47.50;;;;;;5053015;28;20021;-72
2021/04/28 00:26:40;;;;;;;5.25;3.15;;;10.80;47.30;;;;;;5051160;28;20021;-72
2021/04/28 00:29:06;;;;;;;9.10;3.40;;;10.80;47.30;;;;;;5051461;28;20031;-72
2021/04/28 00:31:33;;;;;;;9.18;3.50;;;10.80;47.00;;;;;;5052105;28;20453;-72
2021/04/28 00:33:59;;;;;;;9.10;3.13;;;10.70;47.20;;;;;;5051716;28;20025;-72
2021/04/28 00:36:25;;;;;;;5.40;3.22;;;10.70;47.30;;;;;;5051114;28;20112;-72
2021/04/28 00:38:51;;;;;;;8.18;3.00;;;10.60;47.20;;;;;;5052603;28;20136;-72
2021/04/28 00:41:17;;;;;;;5.95;3.47;;;10.60;47.20;;;;;;5051549;28;20017;-72
2021/04/28 00:43:43;;;;;;;6.18;3.42;;;10.60;47.50;;;;;;5052714;28;20025;-72
2021/04/28 00:46:08;;;;;;;5.88;3.03;;;10.60;47.60;;;;;;5052753;28;20154;-73
2021/04/28 00:48:34;;;;;;;8.20;3.17;;;10.50;47.60;;;;;;5052122;28;20357;-72
2021/04/28 00:51:00;;;;;;;6.80;3.15;;;10.50;47.90;;;;;;5051342;28;20031;-72
2021/04/28 00:53:27;;;;;;;5.53;2.92;;;10.30;48.50;;;;;;5050819;28;20017;-72
2021/04/28 00:55:54;;;;;;;6.38;3.00;;;10.30;49.10;;;;;;5051428;28;20106;-73
2021/04/28 00:58:22;;;;;;;6.85;3.55;;;10.20;49.30;;;;;;5051907;28;20023;-73
2021/04/28 01:00:49;;;;;;;7.47;3.65;;;10.20;49.10;;;;;;5051263;28;20446;-72
2021/04/28 01:03:14;;;;;;;5.60;3.25;;;10.10;49.50;;;;;;5051233;28;20095;-73
2021/04/28 01:05:40;;;;;;;6.75;2.85;;;10.10;50.10;;;;;;5052208;28;20457;-73
2021/04/28 01:08:06;;;;;;;5.60;3.28;;;10.10;49.70;;;;;;5051145;28;20033;-72
2021/04/28 01:10:36;;;;;;;6.38;3.30;;;10.00;49.80;;;;;;5052121;28;20028;-73
2021/04/28 01:13:05;;;;;;;6.95;3.42;;;10.00;50.10;;;;;;5052396;28;20029;-72
2021/04/28 01:15:33;;;;;;;7.40;3.33;;;9.90;50.40;;;;;;5051746;28;20080;-72
2021/04/28 01:18:00;;;;;;;4.25;3.00;;;9.90;50.30;;;;;;5050776;28;20052;-72
2021/04/28 01:20:27;;;;;;;6.68;3.28;;;9.90;50.30;;;;;;5050479;28;20454;-72
2021/04/28 01:22:54;;;;;;;5.13;3.03;;;9.80;50.50;;;;;;5052622;28;20029;-72
2021/04/28 01:25:23;;;;;;;5.18;3.20;;;9.70;50.70;;;;;;5050672;28;20358;-74
2021/04/28 01:28:10;;;;;;;6.57;3.88;;;9.60;51.10;;;;;;5051001;28;20067;-72
2021/04/28 01:30:48;;;;;;;6.25;3.47;;;9.70;51.30;;;;;;5050440;28;20028;-72
2021/04/28 01:33:35;;;;;;;7.25;3.67;;;9.70;51.40;;;;;;5051353;28;20120;-72
2021/04/28 01:36:03;;;;;;;5.40;3.08;;;9.70;51.30;;;;;;5050910;28;20059;-72
2021/04/28 01:38:34;;;;;;;6.97;3.33;;;9.70;50.90;;;;;;5049650;28;20075;-73
2021/04/28 01:41:00;;;;;;;7.35;3.55;;;9.80;50.90;;;;;;5051538;28;20028;-73
2021/04/28 01:43:26;;;;;;;7.10;3.75;;;9.70;50.60;;;;;;5054229;28;20111;-72
2021/04/28 01:45:54;;;;;;;6.75;3.60;;;9.60;50.40;;;;;;5056010;28;20485;-72
2021/04/28 01:48:21;;;;;;;7.13;3.28;;;9.60;50.40;;;;;;5054915;28;20159;-73
2021/04/28 01:50:48;;;;;;;6.30;3.35;;;9.60;50.70;;;;;;5054662;28;20029;-72
2021/04/28 01:53:16;;;;;;;6.53;3.13;;;9.50;50.60;;;;;;5054655;28;20017;-73
2021/04/28 01:55:44;;;;;;;4.70;3.10;;;9.50;51.10;;;;;;5053986;28;20022;-73
2021/04/28 01:58:11;;;;;;;5.45;3.47;;;9.50;51.10;;;;;;5054727;28;20047;-72
2021/04/28 02:00:38;;;;;;;9.90;3.50;;;9.50;51.00;;;;;;5053836;28;20029;-72
2021/04/28 02:03:04;;;;;;;6.93;3.10;;;9.40;50.90;;;;;;5054380;28;20351;-72
2021/04/28 02:05:30;;;;;;;7.88;3.05;;;9.40;51.20;;;;;;5053843;28;20071;-72
2021/04/28 02:07:55;;;;;;;6.63;3.40;;;9.40;51.20;;;;;;5055471;28;20361;-72
2021/04/28 02:10:21;;;;;;;4.90;3.20;;;9.50;51.30;;;;;;5055577;28;20511;-72
2021/04/28 02:12:48;;;;;;;5.30;3.20;;;9.50;51.10;;;;;;5054925;28;20023;-72
2021/04/28 02:15:16;;;;;;;4.88;2.95;;;9.50;51.30;;;;;;5054396;28;20027;-72
2021/04/28 02:17:43;;;;;;;5.95;3.20;;;9.40;52.00;;;;;;5054845;28;20060;-72
2021/04/28 02:20:13;;;;;;;6.70;3.38;;;9.40;51.50;;;;;;5055322;28;20108;-72
2021/04/28 02:22:40;;;;;;;5.45;2.78;;;9.30;51.20;;;;;;5053230;28;20021;-72
2021/04/28 02:25:07;;;;;;;5.22;3.15;;;9.30;51.20;;;;;;5055536;28;20056;-72
2021/04/28 02:27:34;;;;;;;5.78;2.90;;;9.30;51.20;;;;;;5053427;28;20479;-73
2021/04/28 02:30:01;;;;;;;6.78;3.25;;;9.40;51.30;;;;;;5053918;28;20036;-73
2021/04/28 02:32:27;;;;;;;6.47;3.45;;;9.30;51.70;;;;;;5053388;28;20032;-73
2021/04/28 02:34:54;;;;;;;4.75;3.00;;;9.30;52.10;;;;;;5053822;28;20357;-73
2021/04/28 02:37:23;;;;;;;5.78;3.40;;;9.40;51.80;;;;;;5055063;28;20040;-72
2021/04/28 02:40:01;;;;;;;6.32;3.03;;;9.40;51.80;;;;;;5054980;28;20071;-73
2021/04/28 02:42:27;;;;;;;5.57;3.20;;;9.40;51.80;;;;;;5053276;28;20030;-73
2021/04/28 02:44:55;;;;;;;6.68;3.28;;;9.40;52.10;;;;;;5054950;28;20084;-72
2021/04/28 02:47:23;;;;;;;8.90;3.65;;;9.30;52.00;;;;;;5053614;28;20381;-72
2021/04/28 02:49:49;;;;;;;6.63;3.47;;;9.20;52.00;;;;;;5054263;28;20031;-73
2021/04/28 02:52:15;;;;;;;5.00;2.78;;;9.10;52.00;;;;;;5053337;28;20480;-72
2021/04/28 02:54:41;;;;;;;7.55;3.08;;;9.10;52.20;;;;;;5052805;28;20029;-73
2021/04/28 02:57:07;;;;;;;6.53;2.95;;;9.10;52.70;;;;;;5053403;28;20032;-72
2021/04/28 02:59:33;;;;;;;6.72;3.58;;;9.10;52.50;;;;;;5052786;28;20039;-73
2021/04/28 03:01:59;;;;;;;5.80;3.33;;;9.10;52.40;;;;;;5053383;28;20384;-72
2021/04/28 03:04:26;;;;;;;5.25;3.35;;;9.10;52.60;;;;;;5053303;28;20465;-72
2021/04/28 03:06:51;;;;;;;5.75;3.20;;;9.10;52.50;;;;;;5053154;28;20032;-73
2021/04/28 03:09:17;;;;;;;5.47;3.30;;;9.10;52.20;;;;;;5053137;28;20033;-72
2021/04/28 03:11:44;;;;;;;7.15;3.03;;;9.20;52.40;;;;;;5053821;28;20021;-72
2021/04/28 03:14:10;;;;;;;5.80;3.20;;;9.10;52.10;;;;;;5053092;28;20446;-72
2021/04/28 03:16:36;;;;;;;4.85;2.80;;;9.10;52.10;;;;;;5052489;28;20462;-73
2021/04/28 03:19:04;;;;;;;6.00;3.17;;;9.10;52.30;;;;;;5054175;28;20029;-72
2021/04/28 03:21:33;;;;;;;4.88;3.15;;;9.10;52.40;;;;;;5052411;28;20021;-73
2021/04/28 03:24:00;;;;;;;3.97;2.65;;;9.20;52.50;;;;;;5053116;28;20017;-72
2021/04/28 03:26:27;;;;;;;8.77;3.30;;;9.20;52.50;;;;;;5054189;28;20099;-72
2021/04/28 03:28:53;;;;;;;5.05;3.10;;;9.20;52.40;;;;;;5052898;28;20021;-72
2021/04/28 03:31:18;;;;;;;5.50;3.05;;;9.20;52.00;;;;;;5052897;28;20051;-72
2021/04/28 03:33:44;;;;;;;6.38;3.10;;;9.20;51.90;;;;;;5053435;28;20071;-72
2021/04/28 03:36:10;;;;;;;8.13;3.80;;;9.10;52.00;;;;;;5053713;28;20025;-72
2021/04/28 03:38:35;;;;;;;5.05;2.78;;;9.00;52.40;;;;;;5052690;28;20436;-73
2021/04/28 03:41:02;;;;;;;9.82;3.70;;;9.00;52.70;;;;;;5052739;28;20361;-72
2021/04/28 03:43:28;;;;;;;6.57;3.65;;;8.90;52.70;;;;;;5052539;28;20063;-74
2021/04/28 03:45:54;;;;;;;6.05;3.15;;;8.80;53.20;;;;;;5052442;28;20071;-72
2021/04/28 03:48:20;;;;;;;6.50;3.20;;;8.80;53.70;;;;;;5052430;28;20024;-72
2021/04/28 03:50:46;;;;;;;6.43;4.00;;;8.80;53.60;;;;;;5051858;28;20067;-73
2021/04/28 03:53:11;;;;;;;6.85;3.25;;;8.70;54.10;;;;;;5053664;28;20065;-72
2021/04/28 03:55:37;;;;;;;14.77;4.22;;;8.50;54.60;;;;;;5053181;28;20043;-73
2021/04/28 03:58:03;;;;;;;7.35;3.85;;;8.50;55.00;;;;;;5052219;28;20075;-72
2021/04/28 04:00:29;;;;;;;7.00;3.70;;;8.40;55.20;;;;;;5053045;28;20035;-74
2021/04/28 04:02:55;;;;;;;7.22;3.78;;;8.40;55.30;;;;;;5052173;28;20036;-72
2021/04/28 04:05:20;;;;;;;8.10;3.83;;;8.30;55.40;;;;;;5051648;28;20029;-72
2021/04/28 04:07:46;;;;;;;5.90;3.63;;;8.30;55.80;;;;;;5052692;28;20457;-73
2021/04/28 04:10:12;;;;;;;8.32;3.70;;;8.40;55.80;;;;;;5052000;28;20029;-72
2021/04/28 04:12:38;;;;;;;5.47;3.35;;;8.40;55.70;;;;;;5052456;28;20047;-72
2021/04/28 04:15:05;;;;;;;6.93;3.47;;;8.40;55.70;;;;;;5052211;28;20453;-73
2021/04/28 04:17:31;;;;;;;7.72;3.28;;;8.30;55.90;;;;;;5052351;28;20035;-73
2021/04/28 04:19:57;;;;;;;5.68;3.33;;;8.30;55.90;;;;;;5052140;28;20035;-72
2021/04/28 04:22:22;;;;;;;8.30;3.50;;;8.30;55.80;;;;;;5051821;28;20025;-72
2021/04/28 04:24:48;;;;;;;8.25;4.03;;;8.30;56.20;;;;;;5051030;28;20054;-73
2021/04/28 04:27:14;;;;;;;7.38;3.47;;;8.20;56.60;;;;;;5052850;28;20450;-72
2021/04/28 04:29:40;;;;;;;5.57;3.10;;;8.10;57.20;;;;;;5050549;28;20086;-72
2021/04/28 04:32:05;;;;;;;6.20;3.35;;;7.90;57.90;;;;;;5051732;28;20021;-73
2021/04/28 04:34:31;;;;;;;6.40;3.60;;;7.70;58.60;;;;;;5051038;28;20488;-74
2021/04/28 04:36:57;;;;;;;7.20;3.78;;;7.60;58.70;;;;;;5051818;28;20021;-72
2021/04/28 04:39:23;;;;;;;6.00;3.72;;;7.50;58.90;;;;;;5052763;28;20468;-72
2021/04/28 04:41:49;;;;;;;6.57;3.33;;;7.60;59.70;;;;;;5050967;28;20070;-72
2021/04/28 04:44:14;;;;;;;6.80;3.08;;;7.60;60.00;;;;;;5051623;28;20021;-72
2021/04/28 04:46:40;;;;;;;5.60;3.63;;;7.60;59.70;;;;;;5052152;28;20535;-73
2021/04/28 04:49:06;;;;;;;8.40;3.90;;;7.60;59.60;;;;;;5051455;28;20403;-72
2021/04/28 04:51:31;;;;;;;6.80;3.60;;;7.70;59.20;;;;;;5052507;28;20366;-72
2021/04/28 04:53:57;;;;;;;7.18;3.20;;;7.60;59.60;;;;;;5051756;28;20021;-72
2021/04/28 04:56:23;;;;;;;6.68;3.35;;;7.60;59.30;;;;;;5052674;28;20504;-72
2021/04/28 04:58:48;;;;;;;8.55;3.85;;;7.70;59.30;;;;;;5050648;28;20163;-72
2021/04/28 05:01:14;;;;;;;6.72;3.65;;;7.80;59.40;;;;;;5051274;28;20031;-72
2021/04/28 05:03:40;;;;;;;5.43;3.22;;;7.70;59.40;;;;;;5050767;28;20021;-73
2021/04/28 05:06:06;;;;;;;5.95;3.55;;;7.60;59.70;;;;;;5051207;28;20025;-72
2021/04/28 05:08:31;;;;;;;9.55;4.13;;;7.50;60.10;;;;;;5052322;28;20107;-72
2021/04/28 05:10:57;;;;;;;6.70;3.50;;;7.50;60.70;;;;;;5050416;28;20032;-72
2021/04/28 05:13:23;;;;;;;7.72;3.75;;;7.40;60.80;;;;;;5052482;28;20078;-72
2021/04/28 05:15:48;;;;;;;5.50;3.05;;;7.40;61.30;;;;;;5051910;28;20025;-72
2021/04/28 05:18:14;;;;;;;7.13;4.10;;;7.40;61.70;;;;;;5055295;28;20361;-72
2021/04/28 05:20:39;;;;;;;5.97;3.72;;;7.50;62.00;;;;;;5054626;28;20036;-73
2021/04/28 05:23:05;;;;;;;5.43;3.30;;;7.40;61.90;;;;;;5055276;28;20032;-72
2021/04/28 05:25:31;;;;;;;5.80;3.47;;;7.40;62.00;;;;;;5055147;28;20028;-72
2021/04/28 05:27:57;;;;;;;5.82;3.55;;;7.50;61.80;;;;;;5054488;28;20017;-72
2021/04/28 05:30:23;;;;;;;6.75;3.88;;;7.50;61.30;;;;;;5055006;28;20445;-72
2021/04/28 05:32:49;;;;;;;7.15;3.83;;;7.50;61.20;;;;;;5054413;28;20025;-72
2021/04/28 05:35:14;;;;;;;6.77;3.50;;;7.60;61.10;;;;;;5055219;28;20017;-72
2021/04/28 05:37:41;;;;;;;7.63;4.00;;;7.60;60.90;;;;;;5055404;28;20513;-73
2021/04/28 05:40:07;;;;;;;5.93;3.70;;;7.70;61.10;;;;;;5055683;28;20041;-72
2021/04/28 05:42:33;;;;;;;8.05;3.78;;;7.60;60.30;;;;;;5054867;28;20017;-72
2021/04/28 05:44:59;;;;;;;5.32;3.83;;;7.60;61.00;;;;;;5055810;28;20020;-73
2021/04/28 05:47:25;;;;;;;7.05;3.85;;;7.70;60.20;;;;;;5055716;28;20021;-72
2021/04/28 05:49:51;;;;;;;9.60;4.07;;;7.70;60.20;;;;;;5055426;28;20465;-72
2021/04/28 05:52:17;;;;;;;8.27;4.00;;;7.80;60.30;;;;;;5054600;28;20476;-72
2021/04/28 05:54:43;;;;;;;6.80;3.80;;;7.80;60.10;;;;;;5054027;28;20070;-72
2021/04/28 05:57:09;;;;;;;7.45;4.00;;;7.90;61.30;;;;;;5055485;28;20377;-73
2021/04/28 05:59:35;;;;;;;7.03;3.65;;;8.00;60.10;;;;;;5055740;28;20029;-72
2021/04/28 06:02:01;;;;;;;6.30;3.80;;;8.00;59.70;;;;;;5054143;28;20466;-73
2021/04/28 06:04:26;;;;;;;8.65;4.20;;;8.10;59.80;;;;;;5054411;28;20021;-72
2021/04/28 06:06:52;;;;;;;6.93;3.70;;;8.20;59.00;;;;;;5055077;28;20031;-72
2021/04/28 06:09:18;;;;;;;10.30;4.13;;;8.30;58.40;;;;;;5055349;28;20098;-73
2021/04/28 06:11:44;;;;;;;8.93;4.05;;;8.30;58.90;;;;;;5054680;28;20021;-73
2021/04/28 06:14:10;;;;;;;7.57;4.22;;;8.40;59.00;;;;;;5054509;28;20021;-73
2021/04/28 06:16:36;;;;;;;8.63;4.18;;;8.40;58.90;;;;;;5054135;28;20473;-72
2021/04/28 06:19:02;;;;;;;7.38;4.32;;;8.50;59.40;;;;;;5054771;28;20437;-73
2021/04/28 06:21:27;;;;;;;5.95;4.15;;;8.50;59.10;;;;;;5055227;28;20159;-72
2021/04/28 06:23:53;;;;;;;8.15;4.35;;;8.60;59.10;;;;;;5054440;28;20028;-72
2021/04/28 06:26:19;;;;;;;7.60;3.95;;;8.60;59.10;;;;;;5053973;28;20025;-73
2021/04/28 06:28:45;;;;;;;8.20;3.88;;;8.70;58.80;;;;;;5052485;28;20342;-73
2021/04/28 06:31:11;;;;;;;6.57;4.38;;;8.70;58.80;;;;;;5053790;28;20048;-73
2021/04/28 06:33:42;;;;;;;6.22;3.90;;;8.70;58.90;;;;;;5055191;28;20017;-72
2021/04/28 06:36:07;;;;;;;6.03;3.95;;;8.80;58.70;;;;;;5053243;28;20053;-72
2021/04/28 06:38:33;;;;;;;5.55;4.05;;;8.90;59.80;;;;;;5048147;28;20076;-72
2021/04/28 06:40:58;;;;;;;7.65;4.20;;;8.90;59.30;;;;;;5053084;28;20029;-72
2021/04/28 06:43:24;;;;;;;8.95;4.65;;;9.00;59.30;;;;;;5046222;28;20028;-72
2021/04/28 06:45:50;;;;;;;7.78;4.63;;;9.10;58.80;;;;;;5051826;28;20060;-74
2021/04/28 06:48:15;;;;;;;11.07;4.32;;;9.10;58.60;;;;;;5052716;28;20632;-72
2021/04/28 06:50:41;;;;;;;6.90;4.40;;;9.20;58.90;;;;;;5052231;28;20029;-73
2021/04/28 06:53:07;;;;;;;7.65;4.35;;;9.20;58.20;;;;;;5052687;28;20029;-72
2021/04/28 06:55:32;;;;;;;7.15;4.05;;;9.30;57.90;;;;;;5054196;28;20025;-72
2021/04/28 06:57:58;;;;;;;6.75;4.18;;;9.40;58.20;;;;;;5053424;28;20060;-72
2021/04/28 07:00:26;;;;;;;8.43;4.60;;;9.60;57.30;;;;;;5052715;28;20061;-72
2021/04/28 07:02:54;;;;;;;12.55;4.82;;;9.70;56.70;;;;;;5051847;28;20063;-73
2021/04/28 07:05:20;;;;;;;7.45;4.00;;;9.80;55.70;;;;;;5052987;28;20458;-72
2021/04/28 07:07:47;;;;;;;9.40;4.55;;;9.90;54.70;;;;;;5053176;28;20029;-72
2021/04/28 07:10:13;;;;;;;11.25;4.38;;;10.00;54.80;;;;;;5054375;28;20036;-72
2021/04/28 07:12:39;;;;;;;11.18;4.93;;;10.10;54.40;;;;;;5054191;28;20029;-72
2021/04/28 07:15:05;;;;;;;9.00;4.47;;;10.20;54.00;;;;;;5052394;28;20021;-72
2021/04/28 07:17:35;;;;;;;10.10;4.38;;;10.20;54.20;;;;;;5050964;28;20029;-73
2021/04/28 07:20:02;;;;;;;11.68;4.65;;;10.30;54.30;;;;;;5052257;28;20033;-72
2021/04/28 07:22:28;;;;;;;8.75;4.70;;;10.30;54.70;;;;;;5051783;28;20025;-74
2021/04/28 07:24:54;;;;;;;7.72;4.18;;;10.40;53.80;;;;;;5051869;28;20362;-73
2021/04/28 07:27:21;;;;;;;13.88;5.03;;;10.50;53.80;;;;;;5053377;28;20087;-74
2021/04/28 07:29:47;;;;;;;10.88;4.95;;;10.50;53.30;;;;;;5051801;28;20060;-74
2021/04/28 07:32:13;;;;;;;9.18;4.70;;;10.60;53.30;;;;;;5052153;28;20087;-73
2021/04/28 07:34:39;;;;;;;6.70;4.32;;;10.60;53.10;;;;;;5051905;28;20029;-72
2021/04/28 07:37:05;;;;;;;9.27;4.75;;;10.60;53.10;;;;;;5052695;28;20102;-73
2021/04/28 07:39:30;;;;;;;7.40;3.95;;;10.60;52.90;;;;;;5050142;28;20571;-73
2021/04/28 07:41:57;;;;;;;9.43;4.93;;;10.70;53.00;;;;;;5051703;28;20052;-75
2021/04/28 07:44:25;;;;;;;8.73;4.43;;;10.70;52.60;;;;;;5051254;28;20024;-73
2021/04/28 07:46:52;;;;;;;10.07;4.80;;;10.80;53.20;;;;;;5048935;28;20027;-73
2021/04/28 07:49:18;;;;;;;9.30;4.93;;;10.90;52.90;;;;;;5037176;28;20139;-72
2021/04/28 07:51:44;;;;;;;11.77;4.90;;;10.90;52.80;;;;;;5053105;28;20101;-73
2021/04/28 07:54:10;;;;;;;9.95;4.47;;;11.00;52.00;;;;;;5052893;28;20497;-73
2021/04/28 07:56:36;;;;;;;9.82;4.50;;;11.10;51.70;;;;;;5051563;28;20033;-73
2021/04/28 07:59:02;;;;;;;10.20;4.85;;;11.10;51.50;;;;;;5051176;28;20531;-74
2021/04/28 08:01:28;;;;;;;12.40;4.82;;;11.20;50.70;;;;;;5052007;28;20466;-73
2021/04/28 08:03:53;;;;;;;11.75;5.38;;;11.20;51.20;;;;;;5051288;28;20032;-73
2021/04/28 08:06:19;;;;;;;9.50;4.38;;;11.30;51.10;;;;;;5051964;28;20021;-73
2021/04/28 08:08:44;;;;;;;9.02;4.60;;;11.40;51.40;;;;;;5052131;28;20112;-73
2021/04/28 08:11:10;;;;;;;11.23;4.90;;;11.50;51.00;;;;;;5053033;28;20489;-73
2021/04/28 08:13:36;;;;;;;8.00;4.40;;;11.50;51.10;;;;;;5052310;28;20028;-73
2021/04/28 08:16:02;;;;;;;9.25;4.78;;;11.50;51.30;;;;;;5051006;28;20087;-74
2021/04/28 08:18:27;;;;;;;9.68;4.57;;;11.60;51.30;;;;;;5050981;28;20445;-74
2021/04/28 08:20:54;;;;;;;12.57;4.50;;;11.70;51.40;;;;;;5050429;28;20388;-74
2021/04/28 08:23:21;;;;;;;8.60;4.90;;;11.80;51.10;;;;;;5052480;28;20044;-74
2021/04/28 08:25:47;;;;;;;9.10;4.32;;;11.80;51.30;;;;;;5052417;28;20048;-74
2021/04/28 08:28:12;;;;;;;10.60;5.20;;;12.00;51.00;;;;;;5050908;28;20029;-72
2021/04/28 08:30:39;;;;;;;12.50;5.03;;;12.00;50.10;;;;;;5048576;28;20450;-72
2021/04/28 08:33:06;;;;;;;7.82;4.55;;;12.10;50.20;;;;;;5049744;28;20116;-73
2021/04/28 08:35:31;;;;;;;11.40;4.97;;;12.10;50.30;;;;;;5049854;28;20067;-73
2021/04/28 08:37:57;;;;;;;12.90;4.80;;;12.10;50.10;;;;;;5039790;28;20036;-73
2021/04/28 08:40:22;;;;;;;12.48;4.88;;;12.10;50.20;;;;;;5048820;28;20112;-72
2021/04/28 08:42:48;;;;;;;10.00;4.85;;;12.10;50.40;;;;;;5050681;28;20052;-73
2021/04/28 08:45:16;;;;;;;11.48;5.05;;;12.10;50.30;;;;;;5050938;28;20033;-73
2021/04/28 08:47:43;;;;;;;10.45;5.15;;;12.10;51.00;;;;;;5062023;28;20020;-73
2021/04/28 08:50:12;;;;;;;12.07;4.97;;;12.30;50.40;;;;;;5057537;28;20025;-73
2021/04/28 08:52:38;;;;;;;10.13;5.00;;;12.30;50.20;;;;;;5054445;28;20025;-74
2021/04/28 08:55:07;;;;;;;10.63;5.30;;;12.30;50.60;;;;;;5050927;28;20044;-74
2021/04/28 08:57:33;;;;;;;11.48;5.47;;;12.30;50.00;;;;;;5050704;28;20028;-74
2021/04/28 08:59:59;;;;;;;10.88;5.05;;;12.50;49.70;;;;;;5050721;28;20033;-74
2021/04/28 09:02:28;;;;;;;10.73;5.45;;;12.60;49.80;;;;;;5051041;28;20115;-75
2021/04/28 09:05:13;;;;;;;10.13;4.97;;;12.60;49.20;;;;;;5050894;28;20032;-75
2021/04/28 09:07:41;;;;;;;11.73;5.30;;;12.60;49.50;;;;;;5051143;28;20061;-74
2021/04/28 09:10:32;;;;;;;10.82;4.97;;;12.60;49.40;;;;;;5051347;28;20384;-75
2021/04/28 09:13:03;;;;;;;19.45;5.97;;;12.50;49.70;;;;;;5050108;28;20112;-75
2021/04/28 09:15:38;;;;;;;10.75;5.75;;;12.70;48.90;;;;;;5050547;28;20052;-74
2021/04/28 09:18:15;;;;;;;14.35;5.88;;;12.90;48.60;;;;;;5049523;28;20026;-74
2021/04/28 09:20:47;;;;;;;11.15;5.32;;;13.00;48.20;;;;;;5050415;28;20128;-74
2021/04/28 09:23:18;;;;;;;9.57;4.72;;;13.10;48.10;;;;;;5050610;28;20102;-75
2021/04/28 09:25:47;;;;;;;9.97;5.20;;;13.20;48.90;;;;;;5050818;28;20040;-75
2021/04/28 09:28:31;;;;;;;14.95;5.47;;;13.20;49.20;;;;;;5050710;28;20421;-74
2021/04/28 09:31:06;;;;;;;14.52;5.40;;;13.30;49.10;;;;;;5049417;28;20029;-73
2021/04/28 09:33:58;;;;;;;18.40;6.15;;;13.30;48.50;;;;;;5050227;28;20446;-73
2021/04/28 09:36:31;;;;;;;10.60;5.55;;;13.30;48.10;;;;;;5038720;28;20424;-73
2021/04/28 09:39:06;;;;;;;10.90;5.45;;;13.30;48.00;;;;;;5047442;28;20057;-73
2021/04/28 09:41:45;;;;;;;10.00;5.28;;;13.30;48.10;;;;;;5048030;28;20029;-74
2021/04/28 09:44:20;;;;;;;13.00;5.40;;;13.30;48.30;;;;;;5048430;28;20115;-75
2021/04/28 09:46:55;;;;;;;11.77;5.65;;;13.40;47.80;;;;;;5049333;28;20025;-74
2021/04/28 09:49:21;;;;;;;11.93;5.60;;;13.50;48.00;;;;;;5050719;28;20032;-73
2021/04/28 09:51:54;;;;;;;11.55;5.28;;;13.50;47.80;;;;;;5050844;28;20033;-72
2021/04/28 09:54:26;;;;;;;13.85;6.00;;;13.60;48.00;;;;;;5051842;28;20021;-73
2021/04/28 09:56:52;;;;;;;14.23;5.45;;;13.80;46.20;;;;;;5050690;28;20017;-73
2021/04/28 09:59:18;;;;;;;10.65;5.35;;;13.80;46.10;;;;;;5050588;28;20511;-73
2021/04/28 10:01:43;;;;;;;13.43;6.35;;;14.00;45.80;;;;;;5049057;28;20029;-73
2021/04/28 10:04:10;;;;;;;15.77;6.28;;;14.10;45.90;;;;;;5053544;28;20028;-73
2021/04/28 10:06:50;;;;;;;15.05;5.60;;;14.20;45.70;;;;;;5052776;28;20120;-73
2021/04/28 10:09:35;;;;;;;14.57;5.70;;;14.20;45.60;;;;;;5033903;28;20421;-73
2021/04/28 10:12:04;;;;;;;14.90;6.05;;;14.40;45.50;;;;;;5045061;28;20033;-72
2021/04/28 10:14:31;;;;;;;11.50;6.38;;;14.40;44.40;;;;;;5053840;28;20110;-73
2021/04/28 10:16:59;;;;;;;12.80;5.95;;;14.60;43.50;;;;;;5052913;28;20024;-73
2021/04/28 10:19:26;;;;;;;11.15;5.90;;;14.60;43.80;;;;;;5052498;28;20029;-72
2021/04/28 10:22:03;;;;;;;13.32;5.88;;;14.70;44.50;;;;;;5052608;28;20059;-73
2021/04/28 10:24:30;;;;;;;14.60;6.38;;;14.60;44.00;;;;;;5053990;28;20116;-74
2021/04/28 10:26:56;;;;;;;14.52;5.55;;;14.50;45.10;;;;;;5053010;28;20078;-76
2021/04/28 10:29:23;;;;;;;14.48;6.50;;;14.60;45.10;;;;;;5055424;28;20029;-76
2021/04/28 10:31:51;;;;;;;13.98;6.22;;;14.80;45.00;;;;;;5054076;28;20021;-73
2021/04/28 10:34:37;;;;;;;13.05;6.20;;;14.90;45.60;;;;;;5054206;28;20547;-74
2021/04/28 10:37:24;;;;;;;12.05;5.63;;;14.90;45.40;;;;;;5054444;28;20025;-76
2021/04/28 10:39:50;;;;;;;11.85;5.80;;;14.90;45.20;;;;;;4957235;28;20058;-74
2021/04/28 10:42:37;;;;;;;12.88;5.82;;;15.20;43.00;;;;;;4974230;28;20043;-74
2021/04/28 10:45:11;;;;;;;13.82;5.10;;;15.40;42.20;;;;;;4957684;28;20034;-74
2021/04/28 10:47:43;;;;;;;11.73;5.20;;;15.50;42.10;;;;;;4974366;28;20082;-75
2021/04/28 10:50:23;;;;;;;13.43;6.22;;;15.60;41.70;;;;;;4957660;28;20049;-73
2021/04/28 10:52:59;;;;;;;11.65;6.05;;;15.60;40.60;;;;;;4974707;28;20019;-76
2021/04/28 10:55:45;;;;;;;10.88;5.13;;;15.60;41.10;;;;;;4974125;28;20027;-74
2021/04/28 10:58:32;;;;;;;10.88;5.10;;;15.50;41.30;;;;;;4956910;28;20248;-75
2021/04/28 11:01:01;;;;;;;11.77;5.80;;;15.40;41.60;;;;;;4956984;28;20039;-74
2021/04/28 11:03:51;;;;;;;16.80;5.55;;;15.60;40.90;;;;;;4975117;28;20122;-75
2021/04/28 11:06:17;;;;;;;10.93;4.80;;;15.60;41.20;;;;;;4957923;28;20031;-75
2021/04/28 11:08:46;;;;;;;9.85;4.82;;;15.70;39.90;;;;;;4958896;28;20483;-75
2021/04/28 11:11:41;;;;;;;9.23;4.10;;;16.00;37.50;;;;;;4957937;28;20207;-75
2021/04/28 11:14:17;;;;;;;8.40;3.90;;;16.00;36.90;;;;;;4957663;28;20026;-76
2021/04/28 11:16:45;;;;;;;7.85;4.00;;;15.90;37.30;;;;;;5006822;28;20037;-74
2021/04/28 11:19:24;;;;;;;6.45;3.53;;;16.00;36.60;;;;;;5053163;28;20029;-77
2021/04/28 11:22:15;;;;;;;6.25;3.70;;;16.10;37.50;;;;;;5053525;28;20029;-76
2021/04/28 11:24:51;;;;;;;7.38;4.07;;;16.30;36.40;;;;;;5053586;28;20017;-75
2021/04/28 11:27:43;;;;;;;5.53;3.13;;;16.40;36.10;;;;;;5053751;28;20021;-74
2021/04/28 11:30:23;;;;;;;5.55;2.65;;;16.60;33.60;;;;;;5052067;28;20064;-75
2021/04/28 11:33:27;;;;;;;6.22;2.70;;;16.60;34.50;;;;;;5052908;28;20029;-74
2021/04/28 11:35:53;;;;;;;5.13;2.72;;;16.70;35.20;;;;;;5052474;28;20116;-75
2021/04/28 11:38:24;;;;;;;8.27;3.30;;;16.90;34.50;;;;;;5052181;28;20044;-76
2021/04/28 11:41:01;;;;;;;7.28;3.20;;;17.00;35.10;;;;;;5052112;28;20499;-76
2021/04/28 11:43:29;;;;;;;7.40;3.15;;;17.00;35.50;;;;;;5052603;28;20017;-77
2021/04/28 11:46:18;;;;;;;7.68;3.45;;;16.90;36.10;;;;;;5052277;28;20090;-77
2021/04/28 11:48:46;;;;;;;4.75;3.17;;;16.90;35.00;;;;;;5051681;28;20433;-76
2021/04/28 11:51:18;;;;;;;5.03;2.80;;;17.10;34.20;;;;;;5051583;28;20357;-74
2021/04/28 11:53:52;;;;;;;4.07;2.65;;;17.30;34.80;;;;;;5051992;28;20112;-73
2021/04/28 11:56:39;;;;;;;6.18;3.40;;;17.50;34.60;;;;;;5052642;28;20056;-75
2021/04/28 11:59:31;;;;;;;6.85;3.10;;;17.60;35.20;;;;;;5051260;28;20021;-75
2021/04/28 12:02:03;;;;;;;5.10;2.75;;;17.60;37.10;;;;;;5051362;28;20115;-75
2021/04/28 12:04:30;;;;;;;6.55;3.03;;;17.70;37.60;;;;;;5052432;28;20021;-75
2021/04/28 12:06:56;;;;;;;355.65;165.32;;;17.70;37.80;;;;;;5051694;28;20365;-76
2021/04/28 12:09:41;;;;;;;29.90;16.20;;;18.00;34.90;;;;;;5052685;28;20029;-74
2021/04/28 12:12:17;;;;;;;15.57;6.95;;;18.10;34.00;;;;;;5052730;28;20025;-75
2021/04/28 12:14:49;;;;;;;6.50;4.38;;;18.40;32.80;;;;;;5053344;28;20035;-76
2021/04/28 12:17:23;;;;;;;5.53;3.17;;;18.60;32.90;;;;;;5052449;28;20021;-75
2021/04/28 12:19:56;;;;;;;7.85;3.28;;;18.80;33.40;;;;;;5051624;28;20032;-76
2021/04/28 12:22:24;;;;;;;4.95;2.58;;;19.00;32.40;;;;;;5051540;28;20025;-75
2021/04/28 12:24:52;;;;;;;4.25;2.72;;;19.10;32.30;;;;;;5051497;28;20025;-75
2021/04/28 12:27:27;;;;;;;6.53;2.88;;;19.30;33.00;;;;;;5051315;28;20017;-76
2021/04/28 12:29:57;;;;;;;7.22;3.28;;;19.60;30.70;;;;;;5053119;28;20025;-76
2021/04/28 12:32:26;;;;;;;4.95;3.05;;;19.70;31.50;;;;;;5032235;28;20413;-76
2021/04/28 12:35:08;;;;;;;4.13;2.45;;;19.90;31.10;;;;;;5031603;28;20025;-76
2021/04/28 12:37:36;;;;;;;7.38;2.80;;;19.90;31.70;;;;;;5032691;28;20029;-76
2021/04/28 12:40:06;;;;;;;7.07;2.75;;;20.10;32.70;;;;;;5030522;28;20041;-76
2021/04/28 12:42:34;;;;;;;5.88;2.50;;;20.20;31.80;;;;;;5031258;28;20072;-76
2021/04/28 12:45:09;;;;;;;4.15;2.58;;;20.40;34.20;;;;;;5036491;28;20013;-75
2021/04/28 12:47:35;;;;;;;4.53;2.40;;;20.60;33.70;;;;;;5051665;28;20029;-76
2021/04/28 12:50:05;;;;;;;6.43;2.83;;;20.80;29.90;;;;;;5051815;28;20031;-75
2021/04/28 12:52:33;;;;;;;5.70;2.70;;;21.00;29.70;;;;;;5052641;28;20071;-75
2021/04/28 12:55:19;;;;;;;5.53;2.83;;;21.20;30.40;;;;;;5052047;28;20055;-75
2021/04/28 12:57:53;;;;;;;3.78;2.22;;;21.30;30.30;;;;;;5050801;28;20445;-75